createdAt,value
2019-02-17T00:01:47.782Z,4.30
2019-02-17T00:04:16.253Z,4.40
2019-02-17T00:06:51.759Z,4.40
2019-02-17T00:09:20.214Z,4.30
2019-02-17T00:11:48.656Z,4.40
2019-02-17T00:14:17.106Z,4.40
2019-02-17T00:16:45.550Z,4.40
2019-02-17T00:19:13.995Z,4.40
2019-02-17T00:21:42.425Z,4.40
2019-02-17T00:24:10.869Z,4.40
2019-02-17T00:26:39.297Z,4.10
2019-02-17T00:29:07.754Z,4.10
2019-02-17T00:31:36.194Z,4.00
2019-02-17T00:34:04.654Z,4.00
2019-02-17T00:36:33.098Z,4.00
2019-02-17T00:39:01.581Z,3.80
2019-02-17T00:41:30.029Z,3.90
2019-02-17T00:43:58.506Z,4.00
2019-02-17T00:46:26.969Z,4.10
2019-02-17T00:48:55.426Z,4.20
2019-02-17T00:51:23.993Z,4.20
2019-02-17T00:53:52.523Z,4.20
2019-02-17T00:56:20.970Z,4.20
2019-02-17T00:58:49.401Z,4.20
2019-02-17T01:01:17.852Z,4.20
2019-02-17T01:03:46.290Z,4.10
2019-02-17T01:06:14.762Z,4.20
2019-02-17T01:08:43.198Z,4.20
2019-02-17T01:11:11.646Z,4.10
2019-02-17T01:13:40.106Z,4.10
2019-02-17T01:16:08.569Z,4.10
2019-02-17T01:18:36.999Z,4.10
2019-02-17T01:21:05.446Z,4.10
2019-02-17T01:23:33.882Z,4.10
2019-02-17T01:26:11.311Z,4.00
2019-02-17T01:28:39.758Z,4.10
2019-02-17T01:31:08.596Z,4.10
2019-02-17T01:33:37.242Z,4.00
2019-02-17T01:36:05.688Z,4.00
2019-02-17T01:38:34.130Z,4.00
2019-02-17T01:41:02.578Z,4.00
2019-02-17T01:43:32.897Z,4.10
2019-02-17T01:46:01.350Z,4.10
2019-02-17T01:48:29.854Z,4.20
2019-02-17T01:50:58.299Z,4.10
2019-02-17T01:53:26.750Z,4.10
2019-02-17T01:55:55.194Z,4.00
2019-02-17T01:58:23.874Z,3.90
2019-02-17T02:00:52.322Z,3.90
2019-02-17T02:03:20.755Z,3.90
2019-02-17T02:05:51.978Z,3.90
2019-02-17T02:08:20.405Z,3.90
2019-02-17T02:10:48.864Z,3.90
2019-02-17T02:13:17.296Z,3.90
2019-02-17T02:15:45.747Z,3.90
2019-02-17T02:18:14.192Z,3.90
2019-02-17T02:20:42.644Z,3.80
2019-02-17T02:23:11.146Z,3.80
2019-02-17T02:25:39.581Z,3.80
2019-02-17T02:28:08.008Z,3.80
2019-02-17T02:30:36.459Z,3.80
2019-02-17T02:33:04.894Z,3.80
2019-02-17T02:35:33.342Z,3.80
2019-02-17T02:38:01.785Z,3.70
2019-02-17T02:40:30.229Z,3.70
2019-02-17T02:42:58.667Z,3.60
2019-02-17T02:45:27.116Z,3.60
2019-02-17T02:47:55.557Z,3.60
2019-02-17T02:50:24.006Z,3.50
2019-02-17T02:52:52.442Z,3.50
2019-02-17T02:55:20.898Z,3.40
2019-02-17T02:57:49.348Z,3.40
2019-02-17T03:00:17.792Z,3.40
2019-02-17T03:03:05.567Z,3.40
2019-02-17T03:05:35.735Z,3.30
2019-02-17T03:08:04.175Z,3.30
2019-02-17T03:10:32.626Z,3.30
2019-02-17T03:13:01.065Z,3.30
2019-02-17T03:15:29.511Z,3.20
2019-02-17T03:17:57.937Z,3.20
2019-02-17T03:20:26.380Z,3.20
2019-02-17T03:22:54.826Z,3.10
2019-02-17T03:25:23.285Z,3.10
2019-02-17T03:28:12.606Z,3.10
2019-02-17T03:30:42.174Z,3.20
2019-02-17T03:33:10.608Z,3.10
2019-02-17T03:35:39.128Z,3.10
2019-02-17T03:38:07.580Z,3.10
2019-02-17T03:40:36.081Z,3.10
2019-02-17T03:43:04.522Z,3.10
2019-02-17T03:45:32.973Z,3.10
2019-02-17T03:48:01.410Z,3.10
2019-02-17T03:50:29.858Z,3.10
2019-02-17T03:53:17.642Z,3.10
2019-02-17T03:55:46.110Z,3.00
2019-02-17T03:58:14.598Z,3.00
2019-02-17T04:00:43.123Z,3.00
2019-02-17T04:03:11.577Z,3.00
2019-02-17T04:05:40.014Z,3.00
2019-02-17T04:08:08.440Z,2.90
2019-02-17T04:10:36.899Z,3.00
2019-02-17T04:13:05.328Z,2.90
2019-02-17T04:15:33.771Z,2.90
2019-02-17T04:18:02.209Z,2.90
2019-02-17T04:20:30.693Z,2.90
2019-02-17T04:22:59.141Z,2.90
2019-02-17T04:25:27.591Z,2.90
2019-02-17T04:28:15.464Z,2.90
2019-02-17T04:31:03.307Z,2.90
2019-02-17T04:33:31.746Z,2.90
2019-02-17T04:36:00.523Z,2.90
2019-02-17T04:38:28.949Z,2.90
2019-02-17T04:40:57.402Z,2.90
2019-02-17T04:43:25.832Z,2.80
2019-02-17T04:45:54.286Z,2.80
2019-02-17T04:48:22.759Z,2.80
2019-02-17T04:50:51.274Z,2.80
2019-02-17T04:53:19.711Z,2.80
2019-02-17T04:55:48.228Z,2.80
2019-02-17T04:58:16.674Z,2.80
2019-02-17T05:00:45.111Z,2.80
2019-02-17T05:03:13.545Z,2.80
2019-02-17T05:05:41.983Z,2.80
2019-02-17T05:08:10.427Z,2.80
2019-02-17T05:10:38.939Z,2.80
2019-02-17T05:13:07.457Z,2.80
2019-02-17T05:15:35.903Z,2.70
2019-02-17T05:18:05.202Z,2.70
2019-02-17T05:20:33.639Z,2.70
2019-02-17T05:23:02.089Z,2.70
2019-02-17T05:25:30.539Z,2.70
2019-02-17T05:27:58.987Z,2.70
2019-02-17T05:30:27.428Z,2.70
2019-02-17T05:32:55.865Z,2.60
2019-02-17T05:35:24.310Z,2.60
2019-02-17T05:37:52.751Z,2.60
2019-02-17T05:40:21.190Z,2.60
2019-02-17T05:42:49.637Z,2.60
2019-02-17T05:45:37.409Z,2.60
2019-02-17T05:48:05.860Z,2.50
2019-02-17T05:50:34.364Z,2.50
2019-02-17T05:53:02.815Z,2.50
2019-02-17T05:55:31.251Z,2.50
2019-02-17T05:57:59.718Z,2.50
2019-02-17T06:00:29.026Z,2.50
2019-02-17T06:02:57.477Z,2.50
2019-02-17T06:05:25.915Z,2.50
2019-02-17T06:07:54.362Z,2.50
2019-02-17T06:10:22.805Z,2.60
2019-02-17T06:12:51.242Z,2.60
2019-02-17T06:15:19.678Z,2.60
2019-02-17T06:17:48.117Z,2.60
2019-02-17T06:20:16.550Z,2.70
2019-02-17T06:22:44.995Z,2.70
2019-02-17T06:25:13.435Z,2.70
2019-02-17T06:27:41.951Z,2.70
2019-02-17T06:30:10.522Z,2.80
2019-02-17T06:32:58.374Z,2.80
2019-02-17T06:35:26.810Z,2.80
2019-02-17T06:37:55.259Z,2.80
2019-02-17T06:40:23.702Z,2.90
2019-02-17T06:42:52.148Z,2.80
2019-02-17T06:45:20.586Z,2.80
2019-02-17T06:47:49.029Z,2.80
2019-02-17T06:50:17.755Z,2.80
2019-02-17T06:52:46.197Z,2.80
2019-02-17T06:55:28.221Z,2.90
2019-02-17T06:57:56.833Z,2.90
2019-02-17T07:03:23.213Z,2.90
2019-02-17T07:05:59.273Z,2.80
2019-02-17T07:08:27.750Z,2.80
2019-02-17T07:10:56.249Z,2.80
2019-02-17T07:13:44.025Z,2.90
2019-02-17T07:16:12.550Z,2.90
2019-02-17T07:18:41.010Z,2.90
2019-02-17T07:21:09.580Z,2.90
2019-02-17T07:23:38.026Z,3.00
2019-02-17T07:26:06.468Z,3.10
2019-02-17T07:28:34.925Z,3.20
2019-02-17T07:31:03.353Z,3.30
2019-02-17T07:33:31.805Z,3.40
2019-02-17T07:36:10.211Z,3.50
2019-02-17T07:38:38.650Z,3.70
2019-02-17T07:41:07.100Z,3.70
2019-02-17T07:43:35.552Z,3.80
2019-02-17T07:46:03.976Z,3.90
2019-02-17T07:48:32.434Z,4.00
2019-02-17T07:51:00.883Z,4.10
2019-02-17T07:53:29.330Z,4.40
2019-02-17T07:55:57.783Z,4.60
2019-02-17T07:58:26.231Z,4.80
2019-02-17T08:00:54.683Z,5.20
2019-02-17T08:03:23.125Z,5.40
2019-02-17T08:05:51.566Z,5.50
2019-02-17T08:08:20.005Z,5.60
2019-02-17T08:10:48.462Z,5.90
2019-02-17T08:13:16.914Z,6.40
2019-02-17T08:15:45.369Z,7.10
2019-02-17T08:18:13.825Z,8.20
2019-02-17T08:20:42.263Z,9.10
2019-02-17T08:23:10.714Z,10.10
2019-02-17T08:25:39.159Z,10.80
2019-02-17T08:28:07.662Z,11.20
2019-02-17T08:30:36.122Z,11.60
2019-02-17T08:33:04.572Z,11.40
2019-02-17T08:35:33.022Z,11.00
2019-02-17T08:38:03.411Z,10.70
2019-02-17T08:40:31.644Z,10.30
2019-02-17T08:43:00.094Z,10.00
2019-02-17T08:45:28.566Z,9.70
2019-02-17T08:47:57.019Z,9.40
2019-02-17T08:50:25.463Z,9.50
2019-02-17T08:52:53.907Z,9.30
2019-02-17T08:55:22.333Z,9.10
2019-02-17T08:57:50.786Z,9.00
2019-02-17T09:00:19.238Z,8.80
2019-02-17T09:02:47.680Z,8.80
2019-02-17T09:05:16.129Z,9.00
2019-02-17T09:07:44.566Z,9.10
2019-02-17T09:10:13.213Z,9.30
2019-02-17T09:12:41.708Z,9.40
2019-02-17T09:15:12.192Z,9.50
2019-02-17T09:17:40.643Z,9.60
2019-02-17T09:20:11.046Z,9.90
2019-02-17T09:22:39.562Z,10.10
2019-02-17T09:25:10.446Z,10.30
2019-02-17T09:27:38.893Z,10.60
2019-02-17T09:30:13.162Z,10.80
2019-02-17T09:32:41.618Z,11.00
2019-02-17T09:35:10.066Z,11.30
2019-02-17T09:37:38.505Z,11.50
2019-02-17T09:40:09.697Z,11.60
2019-02-17T09:42:38.133Z,11.80
2019-02-17T09:45:09.605Z,12.00
2019-02-17T09:47:38.037Z,12.20
2019-02-17T09:50:09.920Z,12.30
2019-02-17T09:52:38.425Z,12.40
2019-02-17T09:55:08.220Z,12.50
2019-02-17T09:57:36.659Z,12.70
2019-02-17T10:00:07.666Z,13.00
2019-02-17T10:02:36.092Z,13.30
2019-02-17T10:05:23.886Z,13.50
2019-02-17T10:07:52.330Z,13.70
2019-02-17T10:10:21.154Z,13.80
2019-02-17T10:12:49.594Z,14.00
2019-02-17T10:15:18.050Z,14.30
2019-02-17T10:17:46.492Z,14.50
